sensor_id;sensor_type;location;lat;lon;timestamp;P1;durP1;ratioP1;P2;durP2;ratioP2
22213;SDS011;11276;43.566;27.824;2022-08-19T00:01:46;13.73;;;8.70;;
22213;SDS011;11276;43.566;27.824;2022-08-19T00:04:15;13.80;;;8.83;;
22213;SDS011;11276;43.566;27.824;2022-08-19T00:06:45;12.43;;;8.60;;
22213;SDS011;11276;43.566;27.824;2022-08-19T00:09:13;14.20;;;9.10;;
22213;SDS011;11276;43.566;27.824;2022-08-19T00:11:42;14.47;;;8.87;;
22213;SDS011;11276;43.566;27.824;2022-08-19T00:14:10;12.67;;;9.57;;
22213;SDS011;11276;43.566;27.824;2022-08-19T00:16:39;14.83;;;8.83;;
22213;SDS011;11276;43.566;27.824;2022-08-19T00:19:07;12.43;;;8.60;;
22213;SDS011;11276;43.566;27.824;2022-08-19T00:21:35;13.07;;;8.90;;
22213;SDS011;11276;43.566;27.824;2022-08-19T00:24:06;13.40;;;8.27;;
22213;SDS011;11276;43.566;27.824;2022-08-19T00:26:35;18.43;;;9.80;;
22213;SDS011;11276;43.566;27.824;2022-08-19T00:29:04;18.30;;;10.03;;
22213;SDS011;11276;43.566;27.824;2022-08-19T00:31:33;12.63;;;8.87;;
22213;SDS011;11276;43.566;27.824;2022-08-19T00:33:59;12.53;;;8.53;;
22213;SDS011;11276;43.566;27.824;2022-08-19T00:36:26;12.63;;;7.93;;
22213;SDS011;11276;43.566;27.824;2022-08-19T00:38:55;15.47;;;8.90;;
22213;SDS011;11276;43.566;27.824;2022-08-19T00:41:23;15.90;;;9.13;;
22213;SDS011;11276;43.566;27.824;2022-08-19T00:44:01;15.97;;;9.17;;
22213;SDS011;11276;43.566;27.824;2022-08-19T00:46:44;17.73;;;9.17;;
22213;SDS011;11276;43.566;27.824;2022-08-19T00:49:12;12.87;;;9.33;;
22213;SDS011;11276;43.566;27.824;2022-08-19T00:51:44;15.70;;;10.80;;
22213;SDS011;11276;43.566;27.824;2022-08-19T00:54:13;16.47;;;9.73;;
22213;SDS011;11276;43.566;27.824;2022-08-19T00:56:41;13.60;;;9.90;;
22213;SDS011;11276;43.566;27.824;2022-08-19T00:59:08;14.03;;;9.40;;
22213;SDS011;11276;43.566;27.824;2022-08-19T01:01:36;14.50;;;9.93;;
22213;SDS011;11276;43.566;27.824;2022-08-19T01:04:05;14.77;;;8.60;;
22213;SDS011;11276;43.566;27.824;2022-08-19T01:06:33;14.83;;;9.70;;
22213;SDS011;11276;43.566;27.824;2022-08-19T01:09:04;13.93;;;9.80;;
22213;SDS011;11276;43.566;27.824;2022-08-19T01:11:33;16.13;;;9.50;;
22213;SDS011;11276;43.566;27.824;2022-08-19T01:14:03;16.40;;;9.30;;
22213;SDS011;11276;43.566;27.824;2022-08-19T01:16:31;17.97;;;10.40;;
22213;SDS011;11276;43.566;27.824;2022-08-19T01:19:00;15.17;;;9.00;;
22213;SDS011;11276;43.566;27.824;2022-08-19T01:21:37;12.87;;;9.20;;
22213;SDS011;11276;43.566;27.824;2022-08-19T01:24:10;15.37;;;9.00;;
22213;SDS011;11276;43.566;27.824;2022-08-19T01:26:38;14.23;;;10.50;;
22213;SDS011;11276;43.566;27.824;2022-08-19T01:29:08;17.33;;;10.53;;
22213;SDS011;11276;43.566;27.824;2022-08-19T01:31:35;16.07;;;9.30;;
22213;SDS011;11276;43.566;27.824;2022-08-19T01:34:03;15.60;;;9.30;;
22213;SDS011;11276;43.566;27.824;2022-08-19T01:39:05;14.80;;;9.73;;
22213;SDS011;11276;43.566;27.824;2022-08-19T01:41:34;17.63;;;9.70;;
22213;SDS011;11276;43.566;27.824;2022-08-19T01:44:01;15.57;;;10.37;;
22213;SDS011;11276;43.566;27.824;2022-08-19T01:46:30;18.47;;;10.17;;
22213;SDS011;11276;43.566;27.824;2022-08-19T01:48:58;14.33;;;10.20;;
22213;SDS011;11276;43.566;27.824;2022-08-19T01:51:26;15.97;;;10.27;;
22213;SDS011;11276;43.566;27.824;2022-08-19T01:53:53;17.37;;;10.73;;
22213;SDS011;11276;43.566;27.824;2022-08-19T01:56:20;17.53;;;10.70;;
22213;SDS011;11276;43.566;27.824;2022-08-19T01:58:54;18.00;;;9.27;;
22213;SDS011;11276;43.566;27.824;2022-08-19T02:01:24;15.07;;;9.37;;
22213;SDS011;11276;43.566;27.824;2022-08-19T02:03:51;12.73;;;9.40;;
22213;SDS011;11276;43.566;27.824;2022-08-19T02:06:19;14.07;;;9.70;;
22213;SDS011;11276;43.566;27.824;2022-08-19T02:08:47;16.30;;;9.13;;
22213;SDS011;11276;43.566;27.824;2022-08-19T02:11:22;14.20;;;9.70;;
22213;SDS011;11276;43.566;27.824;2022-08-19T02:13:54;19.10;;;10.43;;
22213;SDS011;11276;43.566;27.824;2022-08-19T02:16:21;16.83;;;10.13;;
22213;SDS011;11276;43.566;27.824;2022-08-19T02:18:48;13.87;;;9.60;;
22213;SDS011;11276;43.566;27.824;2022-08-19T02:21:16;14.97;;;10.40;;
22213;SDS011;11276;43.566;27.824;2022-08-19T02:23:44;15.30;;;9.97;;
22213;SDS011;11276;43.566;27.824;2022-08-19T02:26:12;17.37;;;10.20;;
22213;SDS011;11276;43.566;27.824;2022-08-19T02:28:40;14.67;;;9.60;;
22213;SDS011;11276;43.566;27.824;2022-08-19T02:31:12;15.40;;;10.33;;
22213;SDS011;11276;43.566;27.824;2022-08-19T02:33:42;13.03;;;9.73;;
22213;SDS011;11276;43.566;27.824;2022-08-19T02:36:10;16.67;;;10.23;;
22213;SDS011;11276;43.566;27.824;2022-08-19T02:38:38;15.97;;;10.47;;
22213;SDS011;11276;43.566;27.824;2022-08-19T02:41:07;20.80;;;9.43;;
22213;SDS011;11276;43.566;27.824;2022-08-19T02:43:38;14.50;;;9.90;;
22213;SDS011;11276;43.566;27.824;2022-08-19T02:48:48;15.93;;;9.67;;
22213;SDS011;11276;43.566;27.824;2022-08-19T02:51:17;16.27;;;10.23;;
22213;SDS011;11276;43.566;27.824;2022-08-19T02:53:57;15.90;;;10.20;;
22213;SDS011;11276;43.566;27.824;2022-08-19T02:56:25;30.87;;;11.07;;
22213;SDS011;11276;43.566;27.824;2022-08-19T02:58:54;17.30;;;10.70;;
22213;SDS011;11276;43.566;27.824;2022-08-19T03:01:29;17.70;;;10.80;;
22213;SDS011;11276;43.566;27.824;2022-08-19T03:03:59;17.40;;;10.40;;
22213;SDS011;11276;43.566;27.824;2022-08-19T03:06:27;25.17;;;10.27;;
22213;SDS011;11276;43.566;27.824;2022-08-19T03:08:55;15.67;;;9.43;;
22213;SDS011;11276;43.566;27.824;2022-08-19T03:11:23;14.97;;;9.60;;
22213;SDS011;11276;43.566;27.824;2022-08-19T03:13:50;17.70;;;10.57;;
22213;SDS011;11276;43.566;27.824;2022-08-19T03:16:18;15.87;;;9.27;;
22213;SDS011;11276;43.566;27.824;2022-08-19T03:18:46;14.47;;;9.80;;
22213;SDS011;11276;43.566;27.824;2022-08-19T03:21:23;15.60;;;9.83;;
22213;SDS011;11276;43.566;27.824;2022-08-19T03:23:54;19.40;;;10.90;;
22213;SDS011;11276;43.566;27.824;2022-08-19T03:26:22;17.50;;;10.20;;
22213;SDS011;11276;43.566;27.824;2022-08-19T03:28:49;17.17;;;9.70;;
22213;SDS011;11276;43.566;27.824;2022-08-19T03:31:18;22.83;;;11.87;;
22213;SDS011;11276;43.566;27.824;2022-08-19T03:33:48;15.40;;;11.00;;
22213;SDS011;11276;43.566;27.824;2022-08-19T03:36:17;19.83;;;11.03;;
22213;SDS011;11276;43.566;27.824;2022-08-19T03:38:49;19.33;;;11.07;;
22213;SDS011;11276;43.566;27.824;2022-08-19T03:41:19;21.23;;;11.93;;
22213;SDS011;11276;43.566;27.824;2022-08-19T03:43:48;17.60;;;12.03;;
22213;SDS011;11276;43.566;27.824;2022-08-19T03:46:17;17.20;;;11.60;;
22213;SDS011;11276;43.566;27.824;2022-08-19T03:48:47;21.60;;;11.30;;
22213;SDS011;11276;43.566;27.824;2022-08-19T03:51:18;19.60;;;12.40;;
22213;SDS011;11276;43.566;27.824;2022-08-19T03:53:47;17.30;;;11.43;;
22213;SDS011;11276;43.566;27.824;2022-08-19T03:56:15;17.63;;;11.90;;
22213;SDS011;11276;43.566;27.824;2022-08-19T03:58:42;17.63;;;11.30;;
22213;SDS011;11276;43.566;27.824;2022-08-19T04:01:10;16.87;;;10.80;;
22213;SDS011;11276;43.566;27.824;2022-08-19T04:03:39;21.17;;;11.17;;
22213;SDS011;11276;43.566;27.824;2022-08-19T04:06:13;20.20;;;12.30;;
22213;SDS011;11276;43.566;27.824;2022-08-19T04:08:45;16.23;;;10.63;;
22213;SDS011;11276;43.566;27.824;2022-08-19T04:11:13;35.27;;;12.93;;
22213;SDS011;11276;43.566;27.824;2022-08-19T04:13:42;17.47;;;10.50;;
22213;SDS011;11276;43.566;27.824;2022-08-19T04:16:10;20.00;;;12.47;;
22213;SDS011;11276;43.566;27.824;2022-08-19T04:18:38;18.93;;;10.90;;
22213;SDS011;11276;43.566;27.824;2022-08-19T04:21:06;22.30;;;9.73;;
22213;SDS011;11276;43.566;27.824;2022-08-19T04:23:34;13.47;;;10.23;;
22213;SDS011;11276;43.566;27.824;2022-08-19T04:26:04;18.17;;;10.10;;
22213;SDS011;11276;43.566;27.824;2022-08-19T04:28:31;19.47;;;10.20;;
22213;SDS011;11276;43.566;27.824;2022-08-19T04:30:58;16.27;;;10.33;;
22213;SDS011;11276;43.566;27.824;2022-08-19T04:33:25;18.27;;;10.80;;
22213;SDS011;11276;43.566;27.824;2022-08-19T04:35:52;16.53;;;11.07;;
22213;SDS011;11276;43.566;27.824;2022-08-19T04:38:20;15.37;;;10.03;;
22213;SDS011;11276;43.566;27.824;2022-08-19T04:40:50;19.33;;;10.83;;
22213;SDS011;11276;43.566;27.824;2022-08-19T04:43:37;24.63;;;10.80;;
22213;SDS011;11276;43.566;27.824;2022-08-19T04:46:05;16.07;;;9.90;;
22213;SDS011;11276;43.566;27.824;2022-08-19T04:48:34;19.93;;;10.70;;
22213;SDS011;11276;43.566;27.824;2022-08-19T04:51:05;15.80;;;10.93;;
22213;SDS011;11276;43.566;27.824;2022-08-19T04:53:35;16.90;;;10.10;;
22213;SDS011;11276;43.566;27.824;2022-08-19T04:56:05;19.40;;;10.63;;
22213;SDS011;11276;43.566;27.824;2022-08-19T04:58:36;15.80;;;10.70;;
22213;SDS011;11276;43.566;27.824;2022-08-19T05:01:04;23.03;;;11.17;;
22213;SDS011;11276;43.566;27.824;2022-08-19T05:03:31;18.67;;;10.70;;
22213;SDS011;11276;43.566;27.824;2022-08-19T05:06:07;19.87;;;10.10;;
22213;SDS011;11276;43.566;27.824;2022-08-19T05:08:37;12.73;;;9.10;;
22213;SDS011;11276;43.566;27.824;2022-08-19T05:13:43;22.80;;;10.77;;
22213;SDS011;11276;43.566;27.824;2022-08-19T05:16:11;20.70;;;9.57;;
22213;SDS011;11276;43.566;27.824;2022-08-19T05:18:39;19.70;;;10.33;;
22213;SDS011;11276;43.566;27.824;2022-08-19T05:21:25;16.43;;;9.40;;
22213;SDS011;11276;43.566;27.824;2022-08-19T05:24:11;15.13;;;9.87;;
22213;SDS011;11276;43.566;27.824;2022-08-19T05:26:41;15.03;;;9.47;;
22213;SDS011;11276;43.566;27.824;2022-08-19T05:29:09;12.33;;;8.73;;
22213;SDS011;11276;43.566;27.824;2022-08-19T05:31:36;14.73;;;8.93;;
22213;SDS011;11276;43.566;27.824;2022-08-19T05:34:07;17.43;;;9.17;;
22213;SDS011;11276;43.566;27.824;2022-08-19T05:36:35;12.57;;;8.97;;
22213;SDS011;11276;43.566;27.824;2022-08-19T05:39:08;17.73;;;8.93;;
22213;SDS011;11276;43.566;27.824;2022-08-19T05:41:41;15.27;;;9.50;;
22213;SDS011;11276;43.566;27.824;2022-08-19T05:44:16;33.20;;;10.80;;
22213;SDS011;11276;43.566;27.824;2022-08-19T05:46:43;22.23;;;9.20;;
22213;SDS011;11276;43.566;27.824;2022-08-19T05:49:13;16.73;;;9.57;;
22213;SDS011;11276;43.566;27.824;2022-08-19T05:51:42;21.00;;;9.03;;
22213;SDS011;11276;43.566;27.824;2022-08-19T05:54:09;15.03;;;8.73;;
22213;SDS011;11276;43.566;27.824;2022-08-19T05:56:39;13.00;;;8.83;;
22213;SDS011;11276;43.566;27.824;2022-08-19T05:59:08;13.17;;;8.50;;
22213;SDS011;11276;43.566;27.824;2022-08-19T06:01:38;17.60;;;8.53;;
22213;SDS011;11276;43.566;27.824;2022-08-19T06:04:06;12.10;;;8.17;;
22213;SDS011;11276;43.566;27.824;2022-08-19T06:06:33;12.30;;;8.17;;
22213;SDS011;11276;43.566;27.824;2022-08-19T06:09:02;11.53;;;8.17;;
22213;SDS011;11276;43.566;27.824;2022-08-19T06:11:35;11.00;;;8.13;;
22213;SDS011;11276;43.566;27.824;2022-08-19T06:14:08;12.37;;;7.97;;
22213;SDS011;11276;43.566;27.824;2022-08-19T06:16:38;10.30;;;7.50;;
22213;SDS011;11276;43.566;27.824;2022-08-19T06:19:10;15.33;;;8.53;;
22213;SDS011;11276;43.566;27.824;2022-08-19T06:21:39;14.13;;;7.77;;
22213;SDS011;11276;43.566;27.824;2022-08-19T06:24:08;10.13;;;7.43;;
22213;SDS011;11276;43.566;27.824;2022-08-19T06:26:38;14.03;;;7.73;;
22213;SDS011;11276;43.566;27.824;2022-08-19T06:29:07;10.30;;;7.10;;
22213;SDS011;11276;43.566;27.824;2022-08-19T06:31:36;11.77;;;6.67;;
22213;SDS011;11276;43.566;27.824;2022-08-19T06:34:04;11.20;;;7.07;;
22213;SDS011;11276;43.566;27.824;2022-08-19T06:36:32;12.13;;;6.83;;
22213;SDS011;11276;43.566;27.824;2022-08-19T06:39:06;10.63;;;6.80;;
22213;SDS011;11276;43.566;27.824;2022-08-19T06:41:40;16.87;;;7.23;;
22213;SDS011;11276;43.566;27.824;2022-08-19T06:44:12;12.23;;;7.07;;
22213;SDS011;11276;43.566;27.824;2022-08-19T06:46:41;9.90;;;6.60;;
22213;SDS011;11276;43.566;27.824;2022-08-19T06:49:08;7.20;;;6.13;;
22213;SDS011;11276;43.566;27.824;2022-08-19T06:51:37;8.10;;;5.77;;
22213;SDS011;11276;43.566;27.824;2022-08-19T06:54:05;8.90;;;6.40;;
22213;SDS011;11276;43.566;27.824;2022-08-19T06:56:32;9.27;;;6.73;;
22213;SDS011;11276;43.566;27.824;2022-08-19T06:59:02;8.13;;;6.20;;
22213;SDS011;11276;43.566;27.824;2022-08-19T07:01:34;12.00;;;5.80;;
22213;SDS011;11276;43.566;27.824;2022-08-19T07:04:06;10.23;;;5.67;;
22213;SDS011;11276;43.566;27.824;2022-08-19T07:06:36;7.57;;;5.83;;
22213;SDS011;11276;43.566;27.824;2022-08-19T07:09:11;10.60;;;6.13;;
22213;SDS011;11276;43.566;27.824;2022-08-19T07:11:47;6.43;;;5.77;;
22213;SDS011;11276;43.566;27.824;2022-08-19T07:14:17;7.40;;;6.07;;
22213;SDS011;11276;43.566;27.824;2022-08-19T07:16:47;13.23;;;5.83;;
22213;SDS011;11276;43.566;27.824;2022-08-19T07:19:16;6.60;;;5.47;;
22213;SDS011;11276;43.566;27.824;2022-08-19T07:21:44;12.50;;;6.53;;
22213;SDS011;11276;43.566;27.824;2022-08-19T07:24:17;9.00;;;5.63;;
22213;SDS011;11276;43.566;27.824;2022-08-19T07:26:44;8.73;;;5.40;;
22213;SDS011;11276;43.566;27.824;2022-08-19T07:29:11;6.90;;;5.40;;
22213;SDS011;11276;43.566;27.824;2022-08-19T07:31:39;7.23;;;5.43;;
22213;SDS011;11276;43.566;27.824;2022-08-19T07:34:06;16.90;;;5.70;;
22213;SDS011;11276;43.566;27.824;2022-08-19T07:36:35;6.97;;;5.30;;
22213;SDS011;11276;43.566;27.824;2022-08-19T07:39:06;7.90;;;5.10;;
22213;SDS011;11276;43.566;27.824;2022-08-19T07:41:36;7.43;;;5.00;;
22213;SDS011;11276;43.566;27.824;2022-08-19T07:44:04;7.30;;;5.07;;
22213;SDS011;11276;43.566;27.824;2022-08-19T07:46:31;6.27;;;4.90;;
22213;SDS011;11276;43.566;27.824;2022-08-19T07:48:59;10.10;;;5.47;;
22213;SDS011;11276;43.566;27.824;2022-08-19T07:51:27;8.43;;;5.40;;
22213;SDS011;11276;43.566;27.824;2022-08-19T07:53:54;8.27;;;5.60;;
22213;SDS011;11276;43.566;27.824;2022-08-19T07:56:22;9.87;;;4.67;;
22213;SDS011;11276;43.566;27.824;2022-08-19T07:58:50;6.33;;;5.30;;
22213;SDS011;11276;43.566;27.824;2022-08-19T08:01:19;5.27;;;4.50;;
22213;SDS011;11276;43.566;27.824;2022-08-19T08:03:49;7.20;;;4.97;;
22213;SDS011;11276;43.566;27.824;2022-08-19T08:06:37;12.70;;;5.60;;
22213;SDS011;11276;43.566;27.824;2022-08-19T08:09:28;10.40;;;5.60;;
22213;SDS011;11276;43.566;27.824;2022-08-19T08:12:05;8.00;;;4.97;;
22213;SDS011;11276;43.566;27.824;2022-08-19T08:14:47;13.10;;;5.83;;
22213;SDS011;11276;43.566;27.824;2022-08-19T08:17:16;13.30;;;5.80;;
22213;SDS011;11276;43.566;27.824;2022-08-19T08:19:46;9.53;;;5.00;;
22213;SDS011;11276;43.566;27.824;2022-08-19T08:22:15;6.50;;;4.73;;
22213;SDS011;11276;43.566;27.824;2022-08-19T08:25:06;7.97;;;4.43;;
22213;SDS011;11276;43.566;27.824;2022-08-19T08:27:38;6.20;;;4.97;;
22213;SDS011;11276;43.566;27.824;2022-08-19T08:30:10;10.03;;;5.13;;
22213;SDS011;11276;43.566;27.824;2022-08-19T08:32:39;9.03;;;5.70;;
22213;SDS011;11276;43.566;27.824;2022-08-19T08:35:08;14.47;;;5.20;;
22213;SDS011;11276;43.566;27.824;2022-08-19T08:37:37;9.93;;;5.77;;
22213;SDS011;11276;43.566;27.824;2022-08-19T08:40:06;9.20;;;5.13;;
22213;SDS011;11276;43.566;27.824;2022-08-19T08:42:51;7.93;;;5.40;;
22213;SDS011;11276;43.566;27.824;2022-08-19T08:45:32;9.40;;;5.20;;
22213;SDS011;11276;43.566;27.824;2022-08-19T08:48:15;10.67;;;4.90;;
22213;SDS011;11276;43.566;27.824;2022-08-19T08:50:50;10.73;;;5.00;;
22213;SDS011;11276;43.566;27.824;2022-08-19T08:53:21;10.90;;;5.20;;
22213;SDS011;11276;43.566;27.824;2022-08-19T08:55:49;6.60;;;4.83;;
22213;SDS011;11276;43.566;27.824;2022-08-19T08:58:21;25.57;;;5.73;;
22213;SDS011;11276;43.566;27.824;2022-08-19T09:00:55;7.67;;;5.60;;
22213;SDS011;11276;43.566;27.824;2022-08-19T09:03:24;10.77;;;5.17;;
22213;SDS011;11276;43.566;27.824;2022-08-19T09:05:59;11.93;;;6.53;;
22213;SDS011;11276;43.566;27.824;2022-08-19T09:14:17;17.03;;;5.80;;
22213;SDS011;11276;43.566;27.824;2022-08-19T09:17:16;12.13;;;5.60;;
22213;SDS011;11276;43.566;27.824;2022-08-19T09:19:49;10.50;;;6.10;;
22213;SDS011;11276;43.566;27.824;2022-08-19T09:22:23;10.57;;;6.03;;
22213;SDS011;11276;43.566;27.824;2022-08-19T09:24:50;17.97;;;6.50;;
22213;SDS011;11276;43.566;27.824;2022-08-19T09:27:20;15.50;;;6.37;;
22213;SDS011;11276;43.566;27.824;2022-08-19T09:29:52;14.80;;;6.40;;
22213;SDS011;11276;43.566;27.824;2022-08-19T09:32:20;11.40;;;5.70;;
22213;SDS011;11276;43.566;27.824;2022-08-19T09:34:52;14.20;;;6.47;;
22213;SDS011;11276;43.566;27.824;2022-08-19T09:37:21;8.60;;;5.97;;
22213;SDS011;11276;43.566;27.824;2022-08-19T09:39:48;11.03;;;6.23;;
22213;SDS011;11276;43.566;27.824;2022-08-19T09:42:15;11.97;;;5.47;;
22213;SDS011;11276;43.566;27.824;2022-08-19T09:44:42;9.80;;;5.33;;
22213;SDS011;11276;43.566;27.824;2022-08-19T09:47:10;18.27;;;5.93;;
22213;SDS011;11276;43.566;27.824;2022-08-19T09:49:40;8.20;;;5.60;;
22213;SDS011;11276;43.566;27.824;2022-08-19T09:52:11;14.00;;;5.77;;
22213;SDS011;11276;43.566;27.824;2022-08-19T09:54:38;8.97;;;6.27;;
22213;SDS011;11276;43.566;27.824;2022-08-19T09:57:05;13.83;;;6.40;;
22213;SDS011;11276;43.566;27.824;2022-08-19T09:59:32;10.70;;;6.30;;
22213;SDS011;11276;43.566;27.824;2022-08-19T10:02:00;13.80;;;5.63;;
22213;SDS011;11276;43.566;27.824;2022-08-19T10:04:27;12.20;;;6.43;;
22213;SDS011;11276;43.566;27.824;2022-08-19T10:07:14;12.53;;;5.50;;
22213;SDS011;11276;43.566;27.824;2022-08-19T10:09:41;9.10;;;4.70;;
22213;SDS011;11276;43.566;27.824;2022-08-19T10:12:08;8.53;;;5.03;;
22213;SDS011;11276;43.566;27.824;2022-08-19T10:14:35;18.93;;;6.03;;
22213;SDS011;11276;43.566;27.824;2022-08-19T10:17:03;8.33;;;5.30;;
22213;SDS011;11276;43.566;27.824;2022-08-19T10:19:30;9.53;;;5.27;;
22213;SDS011;11276;43.566;27.824;2022-08-19T10:22:03;11.37;;;5.40;;
22213;SDS011;11276;43.566;27.824;2022-08-19T10:24:31;12.00;;;5.43;;
22213;SDS011;11276;43.566;27.824;2022-08-19T10:27:00;8.07;;;5.20;;
22213;SDS011;11276;43.566;27.824;2022-08-19T10:29:32;7.67;;;5.20;;
22213;SDS011;11276;43.566;27.824;2022-08-19T10:32:01;11.30;;;4.93;;
22213;SDS011;11276;43.566;27.824;2022-08-19T10:34:29;15.60;;;5.73;;
22213;SDS011;11276;43.566;27.824;2022-08-19T10:36:58;7.33;;;5.37;;
22213;SDS011;11276;43.566;27.824;2022-08-19T10:39:27;13.10;;;5.37;;
22213;SDS011;11276;43.566;27.824;2022-08-19T10:41:56;11.03;;;4.70;;
22213;SDS011;11276;43.566;27.824;2022-08-19T10:44:23;8.73;;;4.90;;
22213;SDS011;11276;43.566;27.824;2022-08-19T10:46:50;8.03;;;5.07;;
22213;SDS011;11276;43.566;27.824;2022-08-19T10:49:18;13.77;;;4.90;;
22213;SDS011;11276;43.566;27.824;2022-08-19T10:51:45;9.83;;;5.37;;
22213;SDS011;11276;43.566;27.824;2022-08-19T10:54:31;10.30;;;5.40;;
22213;SDS011;11276;43.566;27.824;2022-08-19T10:57:17;10.33;;;5.80;;
22213;SDS011;11276;43.566;27.824;2022-08-19T10:59:44;12.57;;;5.43;;
22213;SDS011;11276;43.566;27.824;2022-08-19T11:02:11;11.00;;;5.10;;
22213;SDS011;11276;43.566;27.824;2022-08-19T11:04:39;8.13;;;4.87;;
22213;SDS011;11276;43.566;27.824;2022-08-19T11:07:07;11.50;;;5.77;;
22213;SDS011;11276;43.566;27.824;2022-08-19T11:09:39;8.37;;;5.23;;
22213;SDS011;11276;43.566;27.824;2022-08-19T11:12:08;9.43;;;5.20;;
22213;SDS011;11276;43.566;27.824;2022-08-19T11:14:36;8.40;;;5.07;;
22213;SDS011;11276;43.566;27.824;2022-08-19T11:17:03;19.13;;;6.13;;
22213;SDS011;11276;43.566;27.824;2022-08-19T11:19:31;12.60;;;5.03;;
22213;SDS011;11276;43.566;27.824;2022-08-19T11:21:59;9.33;;;5.90;;
22213;SDS011;11276;43.566;27.824;2022-08-19T11:24:28;7.80;;;4.80;;
22213;SDS011;11276;43.566;27.824;2022-08-19T11:27:00;10.00;;;5.37;;
22213;SDS011;11276;43.566;27.824;2022-08-19T11:29:31;9.30;;;4.97;;
22213;SDS011;11276;43.566;27.824;2022-08-19T11:32:02;18.80;;;5.37;;
22213;SDS011;11276;43.566;27.824;2022-08-19T11:34:31;9.30;;;4.83;;
22213;SDS011;11276;43.566;27.824;2022-08-19T11:36:59;8.77;;;5.27;;
22213;SDS011;11276;43.566;27.824;2022-08-19T11:39:27;13.27;;;5.37;;
22213;SDS011;11276;43.566;27.824;2022-08-19T11:41:57;8.50;;;5.40;;
22213;SDS011;11276;43.566;27.824;2022-08-19T11:44:24;8.90;;;5.60;;
22213;SDS011;11276;43.566;27.824;2022-08-19T11:46:52;8.93;;;4.90;;
22213;SDS011;11276;43.566;27.824;2022-08-19T11:49:19;9.47;;;4.90;;
22213;SDS011;11276;43.566;27.824;2022-08-19T11:51:47;16.10;;;5.73;;
22213;SDS011;11276;43.566;27.824;2022-08-19T11:54:16;17.80;;;5.73;;
22213;SDS011;11276;43.566;27.824;2022-08-19T11:56:44;6.57;;;4.63;;
22213;SDS011;11276;43.566;27.824;2022-08-19T11:59:12;5.87;;;4.80;;
22213;SDS011;11276;43.566;27.824;2022-08-19T12:01:40;7.73;;;4.57;;
22213;SDS011;11276;43.566;27.824;2022-08-19T12:04:09;9.27;;;4.93;;
22213;SDS011;11276;43.566;27.824;2022-08-19T12:06:37;12.90;;;5.70;;
22213;SDS011;11276;43.566;27.824;2022-08-19T12:09:06;11.20;;;5.40;;
22213;SDS011;11276;43.566;27.824;2022-08-19T12:11:35;12.53;;;5.83;;
22213;SDS011;11276;43.566;27.824;2022-08-19T12:14:03;7.00;;;4.97;;
22213;SDS011;11276;43.566;27.824;2022-08-19T12:16:31;9.20;;;5.00;;
22213;SDS011;11276;43.566;27.824;2022-08-19T12:18:59;9.40;;;4.67;;
22213;SDS011;11276;43.566;27.824;2022-08-19T12:21:31;14.20;;;5.93;;
22213;SDS011;11276;43.566;27.824;2022-08-19T12:24:00;8.17;;;5.30;;
22213;SDS011;11276;43.566;27.824;2022-08-19T12:26:29;10.67;;;5.07;;
22213;SDS011;11276;43.566;27.824;2022-08-19T12:28:57;11.17;;;5.10;;
22213;SDS011;11276;43.566;27.824;2022-08-19T12:31:28;7.93;;;5.10;;
22213;SDS011;11276;43.566;27.824;2022-08-19T12:33:56;8.20;;;4.90;;
22213;SDS011;11276;43.566;27.824;2022-08-19T12:36:23;15.77;;;5.50;;
22213;SDS011;11276;43.566;27.824;2022-08-19T12:38:50;11.03;;;4.90;;
22213;SDS011;11276;43.566;27.824;2022-08-19T12:41:18;11.80;;;5.23;;
22213;SDS011;11276;43.566;27.824;2022-08-19T12:43:49;11.73;;;4.97;;
22213;SDS011;11276;43.566;27.824;2022-08-19T12:46:17;10.43;;;5.23;;
22213;SDS011;11276;43.566;27.824;2022-08-19T12:48:45;11.10;;;5.13;;
22213;SDS011;11276;43.566;27.824;2022-08-19T12:51:15;8.77;;;5.20;;
22213;SDS011;11276;43.566;27.824;2022-08-19T12:53:46;7.50;;;5.03;;
22213;SDS011;11276;43.566;27.824;2022-08-19T12:56:13;10.10;;;4.97;;
22213;SDS011;11276;43.566;27.824;2022-08-19T12:58:41;12.93;;;4.60;;
22213;SDS011;11276;43.566;27.824;2022-08-19T13:01:10;8.53;;;5.43;;
22213;SDS011;11276;43.566;27.824;2022-08-19T13:03:38;6.63;;;4.50;;
22213;SDS011;11276;43.566;27.824;2022-08-19T13:06:06;8.30;;;5.00;;
22213;SDS011;11276;43.566;27.824;2022-08-19T13:08:33;16.63;;;5.67;;
22213;SDS011;11276;43.566;27.824;2022-08-19T13:11:10;23.70;;;5.37;;
22213;SDS011;11276;43.566;27.824;2022-08-19T13:13:40;14.13;;;5.20;;
22213;SDS011;11276;43.566;27.824;2022-08-19T13:16:09;7.57;;;5.40;;
22213;SDS011;11276;43.566;27.824;2022-08-19T13:18:37;11.53;;;5.47;;
22213;SDS011;11276;43.566;27.824;2022-08-19T13:21:06;11.43;;;5.10;;
22213;SDS011;11276;43.566;27.824;2022-08-19T13:23:35;14.50;;;4.60;;
22213;SDS011;11276;43.566;27.824;2022-08-19T13:26:03;8.00;;;5.30;;
22213;SDS011;11276;43.566;27.824;2022-08-19T13:28:32;8.77;;;4.80;;
22213;SDS011;11276;43.566;27.824;2022-08-19T13:31:30;8.20;;;5.00;;
22213;SDS011;11276;43.566;27.824;2022-08-19T13:34:17;9.10;;;4.90;;
22213;SDS011;11276;43.566;27.824;2022-08-19T13:36:47;17.53;;;4.80;;
22213;SDS011;11276;43.566;27.824;2022-08-19T13:39:14;9.50;;;5.07;;
22213;SDS011;11276;43.566;27.824;2022-08-19T13:41:43;9.80;;;5.00;;
22213;SDS011;11276;43.566;27.824;2022-08-19T13:44:15;7.90;;;5.10;;
22213;SDS011;11276;43.566;27.824;2022-08-19T13:46:45;6.63;;;5.07;;
22213;SDS011;11276;43.566;27.824;2022-08-19T13:49:13;12.50;;;5.93;;
22213;SDS011;11276;43.566;27.824;2022-08-19T13:51:42;9.30;;;5.17;;
22213;SDS011;11276;43.566;27.824;2022-08-19T13:54:09;14.23;;;5.27;;
22213;SDS011;11276;43.566;27.824;2022-08-19T13:56:44;9.30;;;5.83;;
22213;SDS011;11276;43.566;27.824;2022-08-19T13:59:11;16.47;;;5.80;;
22213;SDS011;11276;43.566;27.824;2022-08-19T14:01:39;17.73;;;5.10;;
22213;SDS011;11276;43.566;27.824;2022-08-19T14:04:07;8.43;;;5.40;;
22213;SDS011;11276;43.566;27.824;2022-08-19T14:06:34;12.23;;;4.97;;
22213;SDS011;11276;43.566;27.824;2022-08-19T14:09:01;10.93;;;4.73;;
22213;SDS011;11276;43.566;27.824;2022-08-19T14:11:29;9.83;;;5.13;;
22213;SDS011;11276;43.566;27.824;2022-08-19T14:13:56;11.13;;;5.20;;
22213;SDS011;11276;43.566;27.824;2022-08-19T14:16:23;9.50;;;5.20;;
22213;SDS011;11276;43.566;27.824;2022-08-19T14:18:50;17.10;;;6.70;;
22213;SDS011;11276;43.566;27.824;2022-08-19T14:21:19;9.47;;;5.03;;
22213;SDS011;11276;43.566;27.824;2022-08-19T14:23:48;15.43;;;5.67;;
22213;SDS011;11276;43.566;27.824;2022-08-19T14:26:16;13.80;;;5.27;;
22213;SDS011;11276;43.566;27.824;2022-08-19T14:28:44;12.90;;;6.27;;
22213;SDS011;11276;43.566;27.824;2022-08-19T14:31:12;11.40;;;6.40;;
22213;SDS011;11276;43.566;27.824;2022-08-19T14:33:45;13.60;;;6.60;;
22213;SDS011;11276;43.566;27.824;2022-08-19T14:36:13;13.17;;;5.70;;
22213;SDS011;11276;43.566;27.824;2022-08-19T14:38:40;11.40;;;7.00;;
22213;SDS011;11276;43.566;27.824;2022-08-19T14:43:34;13.77;;;7.60;;
22213;SDS011;11276;43.566;27.824;2022-08-19T14:46:00;12.60;;;6.53;;
22213;SDS011;11276;43.566;27.824;2022-08-19T14:48:28;14.03;;;6.80;;
22213;SDS011;11276;43.566;27.824;2022-08-19T14:50:54;10.73;;;6.10;;
22213;SDS011;11276;43.566;27.824;2022-08-19T14:53:21;13.60;;;6.20;;
22213;SDS011;11276;43.566;27.824;2022-08-19T14:55:48;14.67;;;6.27;;